createdAt,value
2022-11-24T00:00:00.639Z,99.99
2022-11-24T00:01:00.655Z,99.99
2022-11-24T00:02:00.769Z,99.99
2022-11-24T00:03:00.945Z,99.99
2022-11-24T00:04:00.633Z,99.99
2022-11-24T00:05:00.592Z,99.99
2022-11-24T00:06:00.619Z,99.99
2022-11-24T00:07:00.624Z,99.99
2022-11-24T00:08:00.594Z,99.99
2022-11-24T00:09:00.573Z,99.99
2022-11-24T00:10:00.679Z,99.99
2022-11-24T00:11:00.547Z,99.99
2022-11-24T00:12:00.530Z,99.99
2022-11-24T00:13:00.545Z,99.92
2022-11-24T00:14:00.552Z,99.82
2022-11-24T00:15:00.485Z,99.82
2022-11-24T00:16:00.479Z,99.25
2022-11-24T00:17:00.574Z,98.52
2022-11-24T00:18:00.463Z,98.11
2022-11-24T00:19:00.533Z,97.90
2022-11-24T00:20:00.758Z,98.42
2022-11-24T00:21:00.444Z,98.32
2022-11-24T00:22:00.452Z,98.52
2022-11-24T00:23:00.414Z,98.99
2022-11-24T00:24:00.486Z,99.30
2022-11-24T00:25:00.422Z,99.71
2022-11-24T00:26:00.391Z,99.61
2022-11-24T00:27:00.398Z,99.51
2022-11-24T00:28:00.379Z,99.04
2022-11-24T00:29:00.370Z,99.30
2022-11-24T00:30:00.397Z,99.30
2022-11-24T00:31:00.405Z,99.71
2022-11-24T00:32:00.359Z,99.92
2022-11-24T00:33:00.337Z,99.99
2022-11-24T00:34:00.321Z,99.99
2022-11-24T00:35:00.305Z,99.82
2022-11-24T00:36:00.314Z,99.25
2022-11-24T00:37:00.329Z,98.83
2022-11-24T00:38:00.292Z,97.96
2022-11-24T00:39:00.334Z,97.75
2022-11-24T00:40:00.295Z,97.44
2022-11-24T00:41:00.307Z,97.44
2022-11-24T00:42:00.234Z,96.57
2022-11-24T00:43:00.317Z,96.67
2022-11-24T00:44:00.232Z,96.82
2022-11-24T00:45:00.773Z,97.13
2022-11-24T00:46:00.325Z,96.72
2022-11-24T00:47:00.306Z,97.24
2022-11-24T00:48:00.250Z,96.98
2022-11-24T00:49:00.133Z,97.13
2022-11-24T00:50:00.131Z,97.44
2022-11-24T00:51:00.143Z,97.90
2022-11-24T00:52:00.484Z,98.32
2022-11-24T00:53:00.112Z,98.83
2022-11-24T00:54:00.102Z,99.04
2022-11-24T00:55:00.083Z,99.30
2022-11-24T00:56:00.107Z,99.51
2022-11-24T00:57:00.111Z,99.61
2022-11-24T00:58:00.166Z,99.40
2022-11-24T00:59:00.099Z,99.51
2022-11-24T01:00:00.018Z,99.71
2022-11-24T01:01:00.063Z,99.82
2022-11-24T01:02:00.110Z,99.92
2022-11-24T01:03:00.129Z,99.92
2022-11-24T01:04:00.048Z,99.82
2022-11-24T01:04:59.960Z,99.04
2022-11-24T01:05:59.959Z,98.32
2022-11-24T01:07:00.705Z,98.11
2022-11-24T01:07:59.933Z,98.42
2022-11-24T01:08:59.981Z,98.52
2022-11-24T01:09:59.948Z,98.52
2022-11-24T01:10:59.937Z,98.32
2022-11-24T01:11:59.971Z,98.42
2022-11-24T01:12:59.891Z,98.48
2022-11-24T01:13:59.882Z,98.63
2022-11-24T01:14:59.897Z,98.42
2022-11-24T01:15:59.933Z,98.94
2022-11-24T01:16:59.838Z,98.73
2022-11-24T01:17:59.830Z,98.83
2022-11-24T01:18:59.846Z,99.15
2022-11-24T01:19:59.839Z,98.69
2022-11-24T01:20:59.862Z,97.55
2022-11-24T01:21:59.829Z,97.71
2022-11-24T01:22:59.815Z,97.96
2022-11-24T01:23:59.779Z,96.98
2022-11-24T01:24:59.824Z,97.09
2022-11-24T01:25:59.782Z,97.50
2022-11-24T01:26:59.772Z,97.09
2022-11-24T01:27:59.800Z,96.98
2022-11-24T01:28:59.748Z,97.29
2022-11-24T01:29:59.734Z,97.29
2022-11-24T01:30:59.825Z,97.29
2022-11-24T01:31:59.697Z,97.50
2022-11-24T01:32:59.700Z,96.57
2022-11-24T01:33:59.702Z,97.19
2022-11-24T01:34:59.696Z,97.60
2022-11-24T01:35:59.664Z,97.60
2022-11-24T01:36:59.643Z,98.07
2022-11-24T01:37:59.836Z,98.38
2022-11-24T01:38:59.623Z,98.48
2022-11-24T01:39:59.607Z,99.00
2022-11-24T01:40:59.649Z,99.00
2022-11-24T01:41:59.636Z,98.90
2022-11-24T01:42:59.583Z,98.90
2022-11-24T01:43:59.682Z,99.10
2022-11-24T01:44:59.580Z,98.58
2022-11-24T01:45:59.594Z,98.48
2022-11-24T01:46:59.531Z,98.58
2022-11-24T01:47:59.534Z,99.04
2022-11-24T01:48:59.529Z,99.56
2022-11-24T01:49:59.503Z,99.77
2022-11-24T01:50:59.560Z,99.77
2022-11-24T01:51:59.483Z,99.99
2022-11-24T01:52:59.466Z,99.99
2022-11-24T01:53:59.477Z,99.99
2022-11-24T01:54:59.485Z,99.99
2022-11-24T01:55:59.453Z,99.99
2022-11-24T01:56:59.431Z,99.99
2022-11-24T01:57:59.481Z,99.99
2022-11-24T01:58:59.461Z,99.99
2022-11-24T01:59:59.418Z,99.99
2022-11-24T02:00:59.412Z,99.99
2022-11-24T02:01:59.470Z,99.99
2022-11-24T02:02:59.516Z,99.99
2022-11-24T02:03:59.368Z,99.62
2022-11-24T02:04:59.344Z,99.57
2022-11-24T02:05:59.402Z,99.78
2022-11-24T02:06:59.322Z,99.99
2022-11-24T02:07:59.312Z,99.99
2022-11-24T02:08:59.325Z,99.99
2022-11-24T02:09:59.296Z,99.99
2022-11-24T02:10:59.287Z,99.99
2022-11-24T02:11:59.270Z,99.99
2022-11-24T02:12:59.281Z,99.99
2022-11-24T02:13:59.274Z,99.99
2022-11-24T02:14:59.242Z,99.99
2022-11-24T02:15:59.283Z,99.99
2022-11-24T02:17:10.445Z,99.99
2022-11-24T02:17:59.217Z,99.99
2022-11-24T02:18:59.269Z,99.99
2022-11-24T02:19:59.184Z,99.99
2022-11-24T02:20:59.232Z,99.99
2022-11-24T02:21:59.215Z,99.99
2022-11-24T02:22:59.165Z,99.99
2022-11-24T02:23:59.165Z,99.99
2022-11-24T02:24:59.160Z,99.99
2022-11-24T02:25:59.139Z,99.99
2022-11-24T02:26:59.136Z,99.99
2022-11-24T02:27:59.131Z,99.99
2022-11-24T02:28:59.110Z,99.99
2022-11-24T02:29:59.138Z,99.99
2022-11-24T02:30:59.107Z,99.99
2022-11-24T02:31:59.090Z,99.99
2022-11-24T02:32:59.258Z,99.99
2022-11-24T02:33:59.049Z,99.99
2022-11-24T02:34:59.094Z,99.99
2022-11-24T02:35:59.044Z,99.99
2022-11-24T02:36:59.025Z,99.99
2022-11-24T02:37:59.067Z,99.99
2022-11-24T02:38:58.991Z,99.99
2022-11-24T02:39:58.974Z,99.84
2022-11-24T02:40:58.977Z,99.94
2022-11-24T02:41:58.976Z,99.99
2022-11-24T02:42:58.972Z,99.79
2022-11-24T02:43:58.985Z,99.90
2022-11-24T02:44:58.920Z,99.99
2022-11-24T02:45:58.966Z,99.58
2022-11-24T02:47:03.773Z,99.99
2022-11-24T02:47:58.908Z,99.99
2022-11-24T02:48:58.903Z,99.99
2022-11-24T02:49:58.897Z,99.99
2022-11-24T02:50:59.697Z,99.99
2022-11-24T02:51:58.865Z,99.99
2022-11-24T02:52:58.865Z,99.99
2022-11-24T02:53:58.878Z,99.99
2022-11-24T02:54:58.945Z,99.99
2022-11-24T02:55:58.814Z,99.99
2022-11-24T02:56:58.858Z,99.99
2022-11-24T02:57:58.806Z,99.99
2022-11-24T02:58:58.810Z,99.99
2022-11-24T02:59:58.826Z,99.99
2022-11-24T03:00:58.854Z,99.99
2022-11-24T03:01:58.824Z,99.79
2022-11-24T03:02:58.814Z,99.79
2022-11-24T03:03:58.745Z,99.58
2022-11-24T03:04:58.846Z,99.99
2022-11-24T03:05:58.723Z,99.73
2022-11-24T03:06:58.703Z,99.27
2022-11-24T03:07:58.695Z,99.69
2022-11-24T03:08:58.685Z,99.38
2022-11-24T03:09:58.672Z,99.17
2022-11-24T03:10:58.685Z,99.90
2022-11-24T03:11:58.672Z,99.48
2022-11-24T03:12:58.641Z,99.17
2022-11-24T03:13:58.660Z,99.63
2022-11-24T03:14:58.624Z,99.94
2022-11-24T03:15:58.725Z,99.94
2022-11-24T03:17:03.262Z,99.94
2022-11-24T03:17:58.605Z,99.99
2022-11-24T03:18:58.607Z,99.84
2022-11-24T03:20:04.159Z,99.22
2022-11-24T03:20:59.563Z,98.70
2022-11-24T03:21:58.602Z,99.43
2022-11-24T03:22:58.559Z,99.84
2022-11-24T03:23:58.527Z,99.94
2022-11-24T03:24:58.607Z,99.01
2022-11-24T03:25:58.518Z,99.11
2022-11-24T03:26:58.503Z,99.22
2022-11-24T03:27:58.535Z,99.94
2022-11-24T03:28:58.522Z,99.11
2022-11-24T03:29:58.469Z,98.80
2022-11-24T03:30:58.500Z,98.34
2022-11-24T03:31:58.562Z,99.11
2022-11-24T03:32:58.444Z,99.32
2022-11-24T03:33:58.481Z,99.22
2022-11-24T03:34:58.477Z,98.80
2022-11-24T03:35:58.401Z,98.60
2022-11-24T03:36:58.428Z,99.43
2022-11-24T03:37:58.381Z,99.32
2022-11-24T03:38:58.433Z,99.84
2022-11-24T03:39:58.387Z,99.11
2022-11-24T03:40:58.380Z,98.80
2022-11-24T03:41:58.399Z,99.32
2022-11-24T03:42:58.362Z,99.63
2022-11-24T03:43:58.316Z,98.60
2022-11-24T03:45:01.621Z,98.49
2022-11-24T03:45:59.369Z,98.91
2022-11-24T03:46:58.309Z,98.49
2022-11-24T03:47:58.278Z,99.22
2022-11-24T03:48:58.310Z,99.32
2022-11-24T03:49:58.262Z,99.52
2022-11-24T03:50:58.280Z,98.28
2022-11-24T03:51:58.299Z,97.87
2022-11-24T03:52:58.278Z,98.70
2022-11-24T03:53:58.259Z,98.91
2022-11-24T03:54:58.258Z,98.70
2022-11-24T03:55:58.196Z,99.01
2022-11-24T03:56:58.255Z,98.80
2022-11-24T03:57:58.178Z,98.39
2022-11-24T03:58:58.175Z,97.66
2022-11-24T03:59:58.157Z,98.08
2022-11-24T04:00:58.161Z,98.18
2022-11-24T04:01:58.183Z,98.08
2022-11-24T04:02:58.275Z,98.91
2022-11-24T04:03:58.138Z,97.97
2022-11-24T04:04:58.140Z,98.39
2022-11-24T04:05:58.251Z,97.10
2022-11-24T04:06:58.136Z,96.27
2022-11-24T04:07:58.069Z,96.89
2022-11-24T04:08:58.085Z,95.96
2022-11-24T04:09:58.076Z,96.17
2022-11-24T04:10:58.060Z,95.96
2022-11-24T04:11:58.026Z,96.17
2022-11-24T04:12:58.071Z,96.58
2022-11-24T04:13:58.013Z,97.41
2022-11-24T04:14:58.011Z,97.87
2022-11-24T04:15:58.026Z,97.77
2022-11-24T04:16:57.976Z,97.04
2022-11-24T04:17:57.998Z,96.48
2022-11-24T04:18:57.977Z,97.10
2022-11-24T04:19:57.936Z,96.89
2022-11-24T04:21:05.278Z,97.35
2022-11-24T04:21:57.964Z,97.97
2022-11-24T04:22:57.939Z,97.97
2022-11-24T04:23:57.899Z,97.87
2022-11-24T04:24:57.918Z,97.87
2022-11-24T04:25:57.895Z,98.39
2022-11-24T04:26:57.915Z,98.70
2022-11-24T04:27:57.856Z,98.28
2022-11-24T04:28:57.888Z,98.91
2022-11-24T04:29:57.837Z,98.85
2022-11-24T04:30:57.879Z,98.18
2022-11-24T04:31:57.832Z,98.80
2022-11-24T04:32:57.808Z,98.95
2022-11-24T04:33:57.835Z,98.74
2022-11-24T04:34:57.846Z,99.16
2022-11-24T04:35:57.795Z,99.37
2022-11-24T04:36:57.970Z,99.26
2022-11-24T04:37:57.757Z,98.74
2022-11-24T04:39:23.540Z,97.97
2022-11-24T04:39:58.743Z,98.18
2022-11-24T04:40:57.756Z,97.45
2022-11-24T04:41:57.722Z,97.66
2022-11-24T04:42:57.727Z,97.66
2022-11-24T04:43:57.701Z,96.89
2022-11-24T04:44:57.793Z,97.45
2022-11-24T04:45:57.712Z,97.45
2022-11-24T04:47:02.339Z,98.18
2022-11-24T04:47:57.648Z,98.39
2022-11-24T04:48:57.742Z,98.80
2022-11-24T04:49:57.632Z,99.01
2022-11-24T04:50:57.646Z,98.60
2022-11-24T04:51:57.626Z,98.85
2022-11-24T04:52:57.603Z,97.35
2022-11-24T04:53:57.595Z,96.48
2022-11-24T04:54:57.709Z,96.06
2022-11-24T04:55:57.613Z,96.48
2022-11-24T04:56:57.572Z,96.58
2022-11-24T04:57:57.565Z,95.75
2022-11-24T04:58:57.584Z,95.24
2022-11-24T04:59:57.542Z,95.44
2022-11-24T05:00:57.529Z,96.06
2022-11-24T05:01:57.746Z,96.06
2022-11-24T05:02:57.493Z,95.65
2022-11-24T05:03:57.584Z,96.17
2022-11-24T05:04:57.478Z,95.44
2022-11-24T05:05:57.489Z,95.34
2022-11-24T05:06:57.452Z,96.06
2022-11-24T05:07:57.525Z,96.52
2022-11-24T05:08:57.462Z,96.52
2022-11-24T05:09:59.662Z,96.11
2022-11-24T05:10:57.433Z,96.21
2022-11-24T05:11:57.403Z,96.47
2022-11-24T05:12:57.426Z,96.98
2022-11-24T05:13:57.460Z,97.50
2022-11-24T05:14:57.396Z,98.07
2022-11-24T05:15:57.417Z,98.90
2022-11-24T05:16:57.392Z,99.10
2022-11-24T05:17:57.344Z,98.79
2022-11-24T05:18:57.331Z,99.00
2022-11-24T05:19:57.793Z,99.15
2022-11-24T05:20:57.330Z,98.90
2022-11-24T05:21:57.306Z,98.90
2022-11-24T05:22:57.294Z,99.04
2022-11-24T05:23:57.279Z,99.56
2022-11-24T05:24:57.285Z,99.77
2022-11-24T05:25:57.771Z,99.99
2022-11-24T05:26:57.274Z,99.99
2022-11-24T05:27:57.249Z,99.99
2022-11-24T05:28:57.268Z,99.99
2022-11-24T05:29:57.222Z,99.99
2022-11-24T05:30:57.321Z,99.99
2022-11-24T05:31:57.200Z,99.99
2022-11-24T05:32:57.212Z,99.99
2022-11-24T05:33:57.176Z,99.99
2022-11-24T05:34:57.191Z,99.99
2022-11-24T05:35:57.200Z,99.99
2022-11-24T05:36:57.299Z,99.99
2022-11-24T05:37:57.130Z,99.99
2022-11-24T05:38:57.122Z,99.99
2022-11-24T05:39:57.126Z,99.99
2022-11-24T05:40:57.100Z,99.99
2022-11-24T05:41:57.168Z,99.99
2022-11-24T05:42:57.107Z,99.99
2022-11-24T05:43:57.086Z,99.99
2022-11-24T05:44:57.065Z,99.99
2022-11-24T05:45:57.123Z,99.99
2022-11-24T05:47:01.859Z,99.99
2022-11-24T05:47:57.055Z,99.99
2022-11-24T05:48:57.166Z,99.99
2022-11-24T05:49:57.010Z,99.99
2022-11-24T05:50:57.153Z,99.99
2022-11-24T05:51:57.052Z,99.99
2022-11-24T05:52:57.081Z,99.99
2022-11-24T05:53:57.056Z,99.99
2022-11-24T05:54:56.960Z,99.99
2022-11-24T05:55:56.948Z,99.99
2022-11-24T05:56:56.993Z,99.99
2022-11-24T05:57:56.969Z,99.99
2022-11-24T05:58:56.955Z,99.99
2022-11-24T05:59:57.118Z,99.99
2022-11-24T06:00:57.144Z,99.99
2022-11-24T06:01:57.022Z,99.99
2022-11-24T06:02:57.062Z,99.99
2022-11-24T06:03:56.893Z,99.99
2022-11-24T06:04:56.879Z,99.99
2022-11-24T06:05:56.867Z,99.99
2022-11-24T06:06:56.867Z,99.99
2022-11-24T06:07:56.928Z,99.99
2022-11-24T06:08:56.828Z,99.99
2022-11-24T06:09:56.830Z,99.99
2022-11-24T06:10:56.827Z,99.99
2022-11-24T06:11:56.831Z,99.99
2022-11-24T06:12:56.841Z,99.99
2022-11-24T06:13:56.900Z,99.99
2022-11-24T06:14:56.772Z,99.99
2022-11-24T06:15:56.775Z,99.99
2022-11-24T06:16:56.820Z,99.99
2022-11-24T06:17:56.747Z,99.99
2022-11-24T06:18:56.743Z,99.99
2022-11-24T06:19:56.710Z,99.99
2022-11-24T06:21:10.123Z,99.99
2022-11-24T06:21:57.717Z,99.99
2022-11-24T06:22:56.711Z,99.99
2022-11-24T06:23:57.261Z,99.99
2022-11-24T06:24:56.650Z,99.99
2022-11-24T06:25:56.698Z,99.99
2022-11-24T06:26:56.640Z,99.99
2022-11-24T06:27:56.790Z,99.99
2022-11-24T06:28:56.606Z,99.99
2022-11-24T06:29:56.594Z,99.99
2022-11-24T06:30:56.612Z,99.99
2022-11-24T06:31:56.694Z,99.99
2022-11-24T06:32:56.555Z,99.99
2022-11-24T06:33:56.596Z,99.99
2022-11-24T06:34:56.606Z,99.99
2022-11-24T06:35:56.554Z,99.99
2022-11-24T06:36:56.552Z,99.99
2022-11-24T06:37:56.522Z,99.99
2022-11-24T06:38:56.815Z,99.99
2022-11-24T06:39:56.640Z,99.99
2022-11-24T06:40:56.504Z,99.99
2022-11-24T06:41:56.481Z,99.99
2022-11-24T06:42:56.481Z,99.99
2022-11-24T06:43:56.479Z,99.99
2022-11-24T06:44:56.526Z,99.99
2022-11-24T06:45:56.516Z,99.99
2022-11-24T06:46:56.440Z,99.99
2022-11-24T06:47:56.495Z,99.99
2022-11-24T06:48:56.399Z,99.99
2022-11-24T06:49:56.402Z,99.99
2022-11-24T06:50:56.439Z,99.99
2022-11-24T06:51:56.563Z,99.99
2022-11-24T06:52:56.420Z,99.99
2022-11-24T06:53:56.350Z,99.99
2022-11-24T06:54:56.351Z,99.91
2022-11-24T06:55:56.536Z,99.70
2022-11-24T06:56:56.331Z,99.28
2022-11-24T06:57:56.305Z,99.18
2022-11-24T06:58:56.325Z,99.28
2022-11-24T06:59:56.348Z,99.38
2022-11-24T07:00:56.439Z,99.59
2022-11-24T07:01:56.270Z,99.70
2022-11-24T07:02:56.471Z,99.49
2022-11-24T07:03:56.287Z,99.70
2022-11-24T07:04:56.275Z,99.38
2022-11-24T07:05:56.437Z,98.86
2022-11-24T07:06:56.255Z,98.97
2022-11-24T07:07:56.308Z,99.07
2022-11-24T07:08:56.202Z,99.28
2022-11-24T07:09:56.221Z,98.30
2022-11-24T07:10:56.244Z,98.10
2022-11-24T07:11:56.234Z,97.68
2022-11-24T07:12:56.176Z,97.12
2022-11-24T07:13:59.925Z,97.12
2022-11-24T07:14:56.132Z,96.70
2022-11-24T07:15:56.156Z,96.60
2022-11-24T07:16:56.269Z,96.29
2022-11-24T07:17:56.125Z,95.93
2022-11-24T07:18:56.222Z,96.14
2022-11-24T07:19:56.085Z,95.83
2022-11-24T07:20:56.086Z,95.93
2022-11-24T07:21:56.117Z,95.83
2022-11-24T07:22:56.156Z,94.89
2022-11-24T07:23:56.079Z,94.85
2022-11-24T07:24:56.151Z,94.64
2022-11-24T07:25:56.127Z,94.33
2022-11-24T07:26:56.030Z,94.23
2022-11-24T07:27:56.010Z,94.54
2022-11-24T07:28:56.004Z,94.43
2022-11-24T07:29:55.996Z,94.54
2022-11-24T07:30:55.968Z,94.33
2022-11-24T07:31:59.559Z,93.66
2022-11-24T07:32:56.946Z,92.94
2022-11-24T07:33:55.953Z,93.41
2022-11-24T07:34:55.990Z,92.49
2022-11-24T07:35:55.913Z,93.31
2022-11-24T07:36:55.921Z,92.03
2022-11-24T07:37:55.896Z,90.78
2022-11-24T07:38:55.936Z,90.23
2022-11-24T07:39:55.903Z,89.61
2022-11-24T07:40:55.872Z,89.46
2022-11-24T07:41:55.868Z,88.64
2022-11-24T07:42:55.840Z,89.01
2022-11-24T07:43:55.835Z,87.93
2022-11-24T07:44:55.848Z,87.17
2022-11-24T07:45:55.940Z,86.41
2022-11-24T07:46:55.803Z,84.72
2022-11-24T07:47:55.868Z,82.82
2022-11-24T07:48:55.781Z,82.75
2022-11-24T07:49:55.804Z,85.47
2022-11-24T07:50:56.497Z,84.75
2022-11-24T07:51:55.807Z,85.17
2022-11-24T07:52:55.742Z,86.76
2022-11-24T07:53:55.731Z,86.96
2022-11-24T07:54:55.799Z,85.31
2022-11-24T07:55:55.711Z,85.72
2022-11-24T07:56:55.713Z,86.10
2022-11-24T07:57:55.694Z,84.51
2022-11-24T07:58:55.679Z,83.75
2022-11-24T07:59:55.790Z,81.75
2022-11-24T08:00:55.875Z,83.23
2022-11-24T08:01:55.699Z,82.92
2022-11-24T08:02:55.693Z,85.87
2022-11-24T08:03:55.731Z,82.98
2022-11-24T08:04:55.660Z,83.61
2022-11-24T08:06:22.126Z,81.03
2022-11-24T08:06:56.622Z,81.48
2022-11-24T08:07:55.701Z,80.86
2022-11-24T08:08:55.585Z,83.40
2022-11-24T08:09:55.562Z,81.96
2022-11-24T08:10:55.563Z,81.07
2022-11-24T08:11:55.546Z,82.26
2022-11-24T08:12:55.588Z,81.99
2022-11-24T08:13:55.566Z,83.03
2022-11-24T08:14:55.564Z,84.47
2022-11-24T08:15:55.511Z,82.40
2022-11-24T08:16:55.575Z,82.34
2022-11-24T08:17:55.541Z,82.55
2022-11-24T08:18:55.471Z,84.72
2022-11-24T08:19:55.461Z,84.36
2022-11-24T08:20:55.450Z,83.33
2022-11-24T08:21:55.434Z,83.33
2022-11-24T08:22:55.517Z,83.54
2022-11-24T08:23:55.438Z,83.95
2022-11-24T08:24:55.402Z,82.10
2022-11-24T08:25:57.020Z,80.86
2022-11-24T08:26:55.397Z,81.85
2022-11-24T08:27:55.440Z,81.65
2022-11-24T08:28:55.359Z,80.55
2022-11-24T08:29:55.390Z,81.54
2022-11-24T08:30:55.361Z,82.57
2022-11-24T08:31:55.397Z,83.50
2022-11-24T08:32:55.403Z,79.20
2022-11-24T08:33:55.372Z,78.44
2022-11-24T08:34:59.579Z,78.41
2022-11-24T08:35:56.297Z,80.51
2022-11-24T08:36:55.279Z,82.10
2022-11-24T08:37:58.153Z,80.76
2022-11-24T08:38:56.313Z,81.51
2022-11-24T08:39:55.268Z,81.31
2022-11-24T08:40:55.293Z,82.03
2022-11-24T08:41:55.402Z,82.40
2022-11-24T08:42:55.273Z,83.54
2022-11-24T08:43:55.219Z,82.92
2022-11-24T08:44:59.068Z,80.44
2022-11-24T08:45:55.277Z,83.33
2022-11-24T08:46:55.233Z,85.30
2022-11-24T08:47:55.187Z,81.68
2022-11-24T08:48:55.223Z,82.92
2022-11-24T08:49:55.263Z,82.30
2022-11-24T08:50:55.145Z,82.96
2022-11-24T08:51:55.166Z,83.99
2022-11-24T08:52:55.134Z,84.13
2022-11-24T08:53:55.109Z,85.02
2022-11-24T08:54:55.244Z,85.89
2022-11-24T08:55:55.074Z,88.06
2022-11-24T08:56:55.132Z,86.30
2022-11-24T08:57:55.053Z,87.65
2022-11-24T08:58:55.826Z,87.13
2022-11-24T08:59:55.108Z,85.68
2022-11-24T09:00:55.321Z,85.02
2022-11-24T09:01:55.219Z,85.33
2022-11-24T09:02:55.795Z,87.66
2022-11-24T09:03:55.212Z,86.02
2022-11-24T09:04:55.062Z,86.90
2022-11-24T09:05:55.009Z,84.49
2022-11-24T09:06:55.041Z,85.36
2022-11-24T09:07:55.049Z,85.57
2022-11-24T09:08:55.033Z,84.36
2022-11-24T09:09:54.984Z,86.43
2022-11-24T09:10:55.027Z,88.02
2022-11-24T09:11:55.049Z,87.71
2022-11-24T09:12:54.929Z,89.50
2022-11-24T09:13:54.987Z,88.47
2022-11-24T09:14:54.930Z,89.23
2022-11-24T09:15:55.784Z,91.40
2022-11-24T09:16:54.905Z,91.92
2022-11-24T09:17:54.850Z,92.74
2022-11-24T09:18:54.887Z,94.29
2022-11-24T09:19:54.907Z,91.30
2022-11-24T09:20:54.814Z,90.31
2022-11-24T09:22:02.680Z,88.65
2022-11-24T09:22:54.805Z,91.13
2022-11-24T09:23:54.790Z,92.58
2022-11-24T09:24:54.806Z,94.13
2022-11-24T09:25:54.822Z,93.51
2022-11-24T09:26:54.778Z,92.32
2022-11-24T09:27:54.737Z,90.87
2022-11-24T09:28:54.785Z,92.93
2022-11-24T09:29:54.747Z,93.66
2022-11-24T09:30:54.758Z,95.94
2022-11-24T09:31:54.692Z,92.72
2022-11-24T09:32:54.734Z,93.87
2022-11-24T09:33:54.900Z,94.32
2022-11-24T09:34:54.764Z,95.87
2022-11-24T09:35:54.712Z,96.19
2022-11-24T09:36:54.671Z,96.91
2022-11-24T09:37:54.656Z,95.77
2022-11-24T09:38:54.661Z,94.37
2022-11-24T09:39:54.607Z,95.19
2022-11-24T09:40:54.690Z,95.71
2022-11-24T09:41:54.769Z,96.54
2022-11-24T09:42:55.334Z,95.81
2022-11-24T09:43:54.695Z,95.40
2022-11-24T09:44:54.606Z,96.44
2022-11-24T09:46:05.349Z,97.78
2022-11-24T09:46:55.645Z,96.33
2022-11-24T09:47:54.543Z,96.75
2022-11-24T09:48:54.541Z,97.67
2022-11-24T09:49:54.517Z,97.63
2022-11-24T09:50:54.503Z,96.29
2022-11-24T09:51:54.513Z,96.19
2022-11-24T09:52:54.696Z,96.80
2022-11-24T09:53:54.493Z,96.55
2022-11-24T09:54:54.471Z,97.17
2022-11-24T09:55:54.454Z,95.89
2022-11-24T09:56:54.644Z,95.17
2022-11-24T09:57:54.588Z,95.64
2022-11-24T09:58:55.962Z,94.60
2022-11-24T09:59:54.669Z,94.60
2022-11-24T10:00:54.554Z,94.35
2022-11-24T10:01:54.626Z,93.01
2022-11-24T10:02:54.520Z,93.32
2022-11-24T10:03:54.531Z,93.69
2022-11-24T10:04:54.420Z,91.79
2022-11-24T10:05:54.334Z,90.92
2022-11-24T10:06:54.479Z,91.13
2022-11-24T10:07:54.639Z,90.00
2022-11-24T10:08:54.408Z,88.96
2022-11-24T10:09:54.315Z,87.73
2022-11-24T10:10:54.824Z,88.14
2022-11-24T10:11:54.317Z,89.11
2022-11-24T10:12:54.272Z,90.92
2022-11-24T10:13:54.557Z,90.00
2022-11-24T10:14:54.538Z,89.38
2022-11-24T10:15:54.462Z,89.54
2022-11-24T10:16:54.230Z,90.99
2022-11-24T10:17:54.223Z,92.84
2022-11-24T10:18:54.233Z,90.10
2022-11-24T10:19:54.187Z,90.35
2022-11-24T10:20:54.232Z,92.10
2022-11-24T10:21:54.227Z,91.89
2022-11-24T10:22:54.166Z,91.28
2022-11-24T10:23:54.145Z,90.92
2022-11-24T10:24:54.235Z,90.20
2022-11-24T10:25:54.193Z,89.89
2022-11-24T10:26:54.131Z,90.72
2022-11-24T10:27:54.659Z,91.03
2022-11-24T10:28:54.109Z,92.78
2022-11-24T10:29:54.091Z,90.97
2022-11-24T10:30:54.223Z,92.72
2022-11-24T10:31:54.100Z,93.13
2022-11-24T10:32:54.061Z,91.52
2022-11-24T10:33:54.074Z,93.44
2022-11-24T10:34:54.064Z,93.38
2022-11-24T10:35:54.021Z,92.97
2022-11-24T10:36:54.878Z,92.70
2022-11-24T10:37:54.001Z,92.40
2022-11-24T10:38:54.026Z,93.63
2022-11-24T10:39:59.703Z,93.01
2022-11-24T10:40:57.752Z,94.04
2022-11-24T10:41:53.951Z,94.87
2022-11-24T10:42:53.967Z,95.43
2022-11-24T10:43:53.985Z,94.97
2022-11-24T10:44:53.929Z,94.09
2022-11-24T10:45:54.038Z,94.19
2022-11-24T10:46:54.050Z,93.68
2022-11-24T10:47:53.903Z,92.33
2022-11-24T10:48:53.879Z,94.67
2022-11-24T10:49:53.864Z,92.50
2022-11-24T10:50:53.888Z,94.35
2022-11-24T10:51:53.879Z,92.04
2022-11-24T10:52:53.845Z,91.32
2022-11-24T10:53:53.832Z,90.19
2022-11-24T10:54:53.818Z,91.22
2022-11-24T10:55:53.802Z,90.91
2022-11-24T10:56:53.847Z,90.08
2022-11-24T10:57:53.789Z,90.59
2022-11-24T10:58:53.805Z,89.36
2022-11-24T10:59:53.812Z,90.91
2022-11-24T11:00:53.771Z,88.70
2022-11-24T11:01:53.891Z,89.01
2022-11-24T11:02:53.890Z,88.70
2022-11-24T11:03:53.718Z,87.35
2022-11-24T11:04:53.771Z,88.76
2022-11-24T11:05:53.714Z,88.24
2022-11-24T11:06:53.706Z,88.90
2022-11-24T11:07:53.753Z,89.94
2022-11-24T11:08:53.678Z,90.82
2022-11-24T11:09:53.673Z,88.20
2022-11-24T11:10:53.684Z,84.25
2022-11-24T11:11:53.701Z,86.68
2022-11-24T11:12:53.635Z,83.14
2022-11-24T11:13:58.224Z,84.13
2022-11-24T11:14:54.604Z,82.55
2022-11-24T11:15:53.665Z,82.57
2022-11-24T11:16:53.592Z,81.62
2022-11-24T11:17:53.596Z,84.95
2022-11-24T11:18:53.583Z,87.36
2022-11-24T11:20:01.438Z,85.65
2022-11-24T11:20:54.546Z,87.38
2022-11-24T11:21:53.526Z,89.54
2022-11-24T11:22:53.573Z,88.65
2022-11-24T11:23:53.650Z,89.13
2022-11-24T11:24:53.514Z,87.44
2022-11-24T11:25:53.539Z,86.82
2022-11-24T11:26:53.524Z,88.17
2022-11-24T11:27:53.486Z,86.24
2022-11-24T11:28:53.552Z,87.69
2022-11-24T11:34:03.597Z,89.19
2022-11-24T11:34:54.434Z,87.54
2022-11-24T11:35:53.405Z,86.55
2022-11-24T11:36:53.387Z,88.72
2022-11-24T11:37:53.467Z,87.54
2022-11-24T11:38:53.379Z,86.55
2022-11-24T11:39:53.410Z,87.17
2022-11-24T11:40:53.354Z,86.15
2022-11-24T11:41:53.319Z,89.13
2022-11-24T11:43:02.352Z,88.62
2022-11-24T11:43:54.339Z,87.93
2022-11-24T11:44:53.316Z,88.35
2022-11-24T11:45:53.535Z,90.35
2022-11-24T11:46:53.312Z,88.80
2022-11-24T11:47:53.330Z,89.83
2022-11-24T11:48:53.246Z,88.95
2022-11-24T11:49:53.401Z,88.80
2022-11-24T11:51:21.768Z,89.15
2022-11-24T11:51:54.240Z,89.52
2022-11-24T11:52:53.218Z,90.86
2022-11-24T11:53:53.349Z,89.15
2022-11-24T11:54:53.276Z,90.19
2022-11-24T11:55:53.167Z,89.15
2022-11-24T11:56:53.184Z,90.35
2022-11-24T11:57:53.175Z,90.92
2022-11-24T11:58:53.157Z,88.14
2022-11-24T11:59:53.185Z,89.13
2022-11-24T12:00:53.157Z,87.48
2022-11-24T12:01:53.135Z,85.52
2022-11-24T12:02:54.084Z,85.42
2022-11-24T12:03:53.248Z,85.38
2022-11-24T12:04:53.086Z,84.35
2022-11-24T12:05:53.100Z,82.97
2022-11-24T12:06:53.093Z,83.25
2022-11-24T12:07:53.164Z,81.39
2022-11-24T12:09:54.018Z,82.14
2022-11-24T12:10:53.071Z,80.84
2022-11-24T12:11:53.843Z,82.07
2022-11-24T12:12:53.005Z,84.34
2022-11-24T12:13:53.036Z,82.42
2022-11-24T12:14:52.976Z,81.91
2022-11-24T12:15:53.060Z,82.73
2022-11-24T12:16:52.977Z,84.69
2022-11-24T12:17:57.854Z,83.42
2022-11-24T12:18:58.012Z,84.97
2022-11-24T12:19:53.909Z,84.97
2022-11-24T12:20:52.904Z,84.14
2022-11-24T12:21:52.895Z,84.87
2022-11-24T12:22:53.010Z,84.25
2022-11-24T12:23:52.880Z,83.94
2022-11-24T12:24:52.972Z,84.97
2022-11-24T12:25:52.868Z,85.07
2022-11-24T12:26:52.874Z,84.45
2022-11-24T12:27:52.839Z,84.14
2022-11-24T12:28:52.815Z,85.11
2022-11-24T12:29:52.818Z,85.42
2022-11-24T12:30:52.877Z,85.77
2022-11-24T12:31:52.860Z,86.66
2022-11-24T12:32:52.800Z,86.15
2022-11-24T12:33:57.903Z,86.87
2022-11-24T12:34:53.761Z,87.69
2022-11-24T12:35:52.751Z,84.70
2022-11-24T12:36:52.783Z,85.42
2022-11-24T12:37:52.746Z,85.42
2022-11-24T12:38:52.735Z,86.24
2022-11-24T12:39:52.710Z,84.80
2022-11-24T12:40:58.073Z,85.11
2022-11-24T12:41:53.721Z,85.07
2022-11-24T12:42:52.743Z,85.59
2022-11-24T12:43:52.664Z,86.61
2022-11-24T12:44:52.667Z,83.77
2022-11-24T12:45:52.637Z,83.56
2022-11-24T12:46:52.748Z,85.01
2022-11-24T12:47:52.673Z,83.67
2022-11-24T12:48:52.631Z,85.01
2022-11-24T12:49:52.648Z,84.77
2022-11-24T12:50:52.601Z,84.14
2022-11-24T12:51:52.601Z,84.91
2022-11-24T12:52:58.424Z,83.98
2022-11-24T12:53:53.640Z,84.49
2022-11-24T12:54:52.578Z,85.05
2022-11-24T12:55:52.577Z,84.01
2022-11-24T12:56:52.563Z,84.94